createdAt,value
2018-07-30T00:00:28.448Z,70.78
2018-07-30T00:01:28.432Z,71.17
2018-07-30T00:02:28.508Z,71.26
2018-07-30T00:03:28.531Z,71.56
2018-07-30T00:04:28.583Z,71.84
2018-07-30T00:05:28.775Z,71.42
2018-07-30T00:06:28.710Z,71.23
2018-07-30T00:07:28.736Z,72.00
2018-07-30T00:08:28.818Z,71.91
2018-07-30T00:09:28.811Z,71.91
2018-07-30T00:10:28.888Z,71.72
2018-07-30T00:11:28.975Z,71.42
2018-07-30T00:12:28.985Z,71.62
2018-07-30T00:13:29.040Z,70.94
2018-07-30T00:14:29.061Z,71.23
2018-07-30T00:15:29.121Z,71.23
2018-07-30T00:16:29.177Z,71.72
2018-07-30T00:17:29.212Z,71.72
2018-07-30T00:18:29.276Z,71.23
2018-07-30T00:19:29.305Z,71.52
2018-07-30T00:20:29.370Z,71.91
2018-07-30T00:21:29.462Z,71.62
2018-07-30T00:22:29.469Z,70.94
2018-07-30T00:23:29.513Z,71.91
2018-07-30T00:24:29.530Z,72.30
2018-07-30T00:25:29.576Z,71.23
2018-07-30T00:26:29.653Z,71.72
2018-07-30T00:27:29.715Z,71.91
2018-07-30T00:28:29.753Z,71.62
2018-07-30T00:29:29.811Z,72.00
2018-07-30T00:30:29.868Z,71.81
2018-07-30T00:31:29.940Z,72.10
2018-07-30T00:32:29.938Z,71.81
2018-07-30T00:33:30.009Z,71.81
2018-07-30T00:34:30.028Z,72.36
2018-07-30T00:35:30.082Z,72.36
2018-07-30T00:36:30.112Z,72.55
2018-07-30T00:37:30.199Z,72.36
2018-07-30T00:38:30.196Z,72.36
2018-07-30T00:39:30.248Z,72.16
2018-07-30T00:40:30.311Z,72.36
2018-07-30T00:41:30.382Z,72.26
2018-07-30T00:42:30.413Z,72.16
2018-07-30T00:43:30.448Z,72.45
2018-07-30T00:44:30.497Z,72.45
2018-07-30T00:45:30.564Z,72.84
2018-07-30T00:46:30.582Z,72.84
2018-07-30T00:47:30.638Z,72.94
2018-07-30T00:48:30.722Z,73.03
2018-07-30T00:49:30.734Z,73.03
2018-07-30T00:50:30.778Z,72.74
2018-07-30T00:51:30.829Z,72.84
2018-07-30T00:52:30.895Z,72.84
2018-07-30T00:53:30.917Z,72.64
2018-07-30T00:54:30.990Z,73.42
2018-07-30T00:55:31.023Z,73.22
2018-07-30T00:56:31.094Z,73.42
2018-07-30T00:57:31.116Z,73.13
2018-07-30T00:58:31.146Z,73.32
2018-07-30T00:59:31.207Z,73.42
2018-07-30T01:00:31.253Z,73.61
2018-07-30T01:01:31.299Z,73.32
2018-07-30T01:02:31.361Z,73.32
2018-07-30T01:03:31.443Z,73.42
2018-07-30T01:04:31.466Z,73.71
2018-07-30T01:05:31.483Z,73.90
2018-07-30T01:06:31.546Z,74.19
2018-07-30T01:07:31.587Z,73.90
2018-07-30T01:08:31.621Z,74.38
2018-07-30T01:09:31.693Z,74.00
2018-07-30T01:10:31.716Z,74.48
2018-07-30T01:11:31.810Z,74.68
2018-07-30T01:12:31.849Z,75.12
2018-07-30T01:13:31.856Z,75.02
2018-07-30T01:14:31.946Z,75.02
2018-07-30T01:15:31.977Z,74.73
2018-07-30T01:16:32.068Z,74.83
2018-07-30T01:17:32.042Z,74.93
2018-07-30T01:18:32.109Z,75.12
2018-07-30T01:19:32.148Z,75.02
2018-07-30T01:20:32.201Z,74.93
2018-07-30T01:21:32.293Z,74.83
2018-07-30T01:22:32.342Z,75.41
2018-07-30T01:23:32.357Z,75.02
2018-07-30T01:24:32.396Z,75.31
2018-07-30T01:25:32.473Z,75.41
2018-07-30T01:26:32.461Z,75.60
2018-07-30T01:27:32.518Z,75.31
2018-07-30T01:28:32.572Z,75.70
2018-07-30T01:29:32.640Z,75.79
2018-07-30T01:30:32.710Z,75.79
2018-07-30T01:31:32.757Z,75.79
2018-07-30T01:32:32.773Z,75.99
2018-07-30T01:33:32.826Z,76.09
2018-07-30T01:34:32.869Z,75.99
2018-07-30T01:35:32.889Z,75.89
2018-07-30T01:36:32.946Z,75.70
2018-07-30T01:37:33.026Z,75.95
2018-07-30T01:38:33.026Z,76.18
2018-07-30T01:39:33.113Z,75.70
2018-07-30T01:40:33.138Z,75.95
2018-07-30T01:41:33.188Z,76.24
2018-07-30T01:42:33.261Z,75.95
2018-07-30T01:43:33.296Z,75.67
2018-07-30T01:44:33.319Z,75.67
2018-07-30T01:45:33.393Z,76.63
2018-07-30T01:46:33.406Z,76.24
2018-07-30T01:47:33.473Z,75.85
2018-07-30T01:48:33.684Z,76.24
2018-07-30T01:49:33.545Z,76.72
2018-07-30T01:50:33.599Z,76.15
2018-07-30T01:51:33.653Z,76.72
2018-07-30T01:52:33.704Z,76.05
2018-07-30T01:53:33.803Z,76.72
2018-07-30T01:54:33.792Z,76.72
2018-07-30T01:55:33.871Z,76.82
2018-07-30T01:56:33.892Z,75.95
2018-07-30T01:57:33.949Z,76.63
2018-07-30T01:58:33.970Z,76.53
2018-07-30T01:59:34.033Z,76.82
2018-07-30T02:00:34.053Z,76.63
2018-07-30T02:01:34.205Z,76.82
2018-07-30T02:02:34.168Z,76.82
2018-07-30T02:03:34.217Z,76.72
2018-07-30T02:04:34.243Z,76.72
2018-07-30T02:05:34.305Z,76.72
2018-07-30T02:06:34.369Z,76.92
2018-07-30T02:07:34.381Z,76.82
2018-07-30T02:08:34.445Z,76.63
2018-07-30T02:09:34.589Z,77.21
2018-07-30T02:10:34.612Z,77.11
2018-07-30T02:11:34.595Z,76.92
2018-07-30T02:12:34.627Z,76.72
2018-07-30T02:13:34.694Z,76.72
2018-07-30T02:14:34.736Z,76.72
2018-07-30T02:15:34.797Z,76.72
2018-07-30T02:16:34.833Z,76.63
2018-07-30T02:17:34.857Z,77.11
2018-07-30T02:18:34.902Z,76.92
2018-07-30T02:19:34.970Z,76.82
2018-07-30T02:20:35.009Z,76.82
2018-07-30T02:21:35.168Z,76.72
2018-07-30T02:22:35.108Z,77.11
2018-07-30T02:23:35.139Z,77.11
2018-07-30T02:24:35.212Z,76.72
2018-07-30T02:25:35.224Z,76.82
2018-07-30T02:26:35.290Z,76.82
2018-07-30T02:27:35.420Z,76.43
2018-07-30T02:28:35.372Z,77.11
2018-07-30T02:29:35.476Z,76.34
2018-07-30T02:30:35.533Z,76.88
2018-07-30T02:31:35.584Z,77.21
2018-07-30T02:32:35.639Z,77.75
2018-07-30T02:33:35.614Z,77.65
2018-07-30T02:34:35.641Z,76.88
2018-07-30T02:35:35.709Z,77.65
2018-07-30T02:36:35.756Z,77.26
2018-07-30T02:37:35.812Z,77.55
2018-07-30T02:38:35.836Z,77.46
2018-07-30T02:39:35.898Z,77.65
2018-07-30T02:40:35.937Z,77.46
2018-07-30T02:41:35.957Z,77.46
2018-07-30T02:42:36.024Z,77.65
2018-07-30T02:43:36.104Z,77.55
2018-07-30T02:44:36.111Z,77.84
2018-07-30T02:45:36.177Z,77.55
2018-07-30T02:46:36.223Z,77.46
2018-07-30T02:47:36.247Z,77.55
2018-07-30T02:48:36.308Z,77.55
2018-07-30T02:49:36.389Z,77.55
2018-07-30T02:50:36.388Z,77.36
2018-07-30T02:51:36.428Z,77.17
2018-07-30T02:52:36.498Z,77.55
2018-07-30T02:53:36.520Z,77.17
2018-07-30T02:54:36.564Z,77.65
2018-07-30T02:55:36.649Z,77.65
2018-07-30T02:56:36.711Z,77.84
2018-07-30T02:57:36.782Z,78.03
2018-07-30T02:58:36.756Z,77.65
2018-07-30T02:59:36.796Z,77.55
2018-07-30T03:00:36.872Z,77.55
2018-07-30T03:01:36.879Z,77.65
2018-07-30T03:02:36.959Z,77.51
2018-07-30T03:03:36.983Z,77.75
2018-07-30T03:04:37.015Z,77.90
2018-07-30T03:05:37.094Z,78.00
2018-07-30T03:06:37.133Z,77.71
2018-07-30T03:07:37.207Z,78.00
2018-07-30T03:08:37.228Z,78.38
2018-07-30T03:09:37.271Z,78.19
2018-07-30T03:10:37.320Z,78.19
2018-07-30T03:11:37.401Z,77.71
2018-07-30T03:12:37.411Z,77.90
2018-07-30T03:13:37.492Z,77.71
2018-07-30T03:14:37.494Z,78.00
2018-07-30T03:15:37.560Z,78.29
2018-07-30T03:16:37.606Z,77.81
2018-07-30T03:17:37.666Z,77.51
2018-07-30T03:18:37.686Z,78.00
2018-07-30T03:19:37.734Z,78.38
2018-07-30T03:20:37.804Z,77.51
2018-07-30T03:21:37.823Z,77.61
2018-07-30T03:22:37.860Z,77.81
2018-07-30T03:23:37.923Z,77.51
2018-07-30T03:24:37.965Z,77.61
2018-07-30T03:25:38.012Z,77.61
2018-07-30T03:26:38.033Z,78.19
2018-07-30T03:27:38.083Z,78.38
2018-07-30T03:28:38.190Z,78.00
2018-07-30T03:29:38.189Z,77.90
2018-07-30T03:30:38.207Z,78.48
2018-07-30T03:31:38.272Z,78.00
2018-07-30T03:32:38.304Z,78.19
2018-07-30T03:33:38.371Z,78.29
2018-07-30T03:34:38.417Z,78.00
2018-07-30T03:35:38.467Z,78.38
2018-07-30T03:36:38.668Z,78.86
2018-07-30T03:37:38.571Z,78.58
2018-07-30T03:38:38.599Z,78.67
2018-07-30T03:39:38.667Z,78.77
2018-07-30T03:40:38.698Z,78.67
2018-07-30T03:41:38.731Z,78.77
2018-07-30T03:42:38.765Z,78.73
2018-07-30T03:43:38.846Z,78.48
2018-07-30T03:44:38.918Z,78.77
2018-07-30T03:45:38.915Z,78.77
2018-07-30T03:46:38.965Z,78.86
2018-07-30T03:47:39.038Z,78.96
2018-07-30T03:48:39.059Z,78.83
2018-07-30T03:49:39.117Z,79.21
2018-07-30T03:50:39.142Z,79.11
2018-07-30T03:51:39.168Z,79.02
2018-07-30T03:52:39.238Z,78.83
2018-07-30T03:53:39.278Z,78.34
2018-07-30T03:54:39.385Z,78.44
2018-07-30T03:55:39.371Z,78.83
2018-07-30T03:56:39.405Z,78.15
2018-07-30T03:57:39.708Z,78.44
2018-07-30T03:58:39.526Z,78.34
2018-07-30T03:59:39.542Z,77.48
2018-07-30T04:00:39.607Z,77.81
2018-07-30T04:01:39.644Z,77.71
2018-07-30T04:02:39.693Z,77.71
2018-07-30T04:03:39.782Z,78.19
2018-07-30T04:04:39.769Z,78.25
2018-07-30T04:05:39.832Z,78.06
2018-07-30T04:06:39.849Z,78.54
2018-07-30T04:07:39.926Z,79.11
2018-07-30T04:08:40.197Z,78.92
2018-07-30T04:09:40.215Z,78.44
2018-07-30T04:10:40.056Z,78.73
2018-07-30T04:11:40.131Z,78.73
2018-07-30T04:12:40.250Z,78.34
2018-07-30T04:13:40.194Z,78.15
2018-07-30T04:14:40.264Z,78.54
2018-07-30T04:15:40.322Z,78.83
2018-07-30T04:16:40.321Z,78.44
2018-07-30T04:17:40.382Z,78.73
2018-07-30T04:18:40.438Z,79.21
2018-07-30T04:19:40.625Z,79.02
2018-07-30T04:20:40.511Z,78.83
2018-07-30T04:21:40.584Z,79.21
2018-07-30T04:22:40.617Z,79.50
2018-07-30T04:23:40.627Z,79.36
2018-07-30T04:24:40.701Z,79.69
2018-07-30T04:25:40.744Z,79.85
2018-07-30T04:26:40.778Z,79.46
2018-07-30T04:27:40.819Z,79.56
2018-07-30T04:28:40.885Z,79.94
2018-07-30T04:29:40.967Z,80.43
2018-07-30T04:30:41.113Z,80.04
2018-07-30T04:31:40.991Z,80.23
2018-07-30T04:32:41.068Z,80.52
2018-07-30T04:33:41.125Z,79.85
2018-07-30T04:34:42.384Z,79.94
2018-07-30T04:35:41.201Z,80.23
2018-07-30T04:36:41.503Z,80.62
2018-07-30T04:37:41.295Z,80.43
2018-07-30T04:38:41.327Z,81.10
2018-07-30T04:39:41.357Z,80.23
2018-07-30T04:40:41.424Z,80.71
2018-07-30T04:42:41.516Z,80.14
2018-07-30T04:43:41.607Z,80.23
2018-07-30T04:44:41.605Z,80.33
2018-07-30T04:45:41.660Z,81.01
2018-07-30T04:46:41.709Z,80.71
2018-07-30T04:47:41.990Z,80.81
2018-07-30T04:48:41.806Z,81.10
2018-07-30T04:49:41.866Z,80.91
2018-07-30T04:50:41.887Z,81.58
2018-07-30T04:51:41.923Z,81.29
2018-07-30T04:52:41.986Z,81.39
2018-07-30T04:53:42.191Z,81.48
2018-07-30T04:54:42.092Z,81.45
2018-07-30T04:55:42.096Z,81.73
2018-07-30T04:56:42.154Z,81.93
2018-07-30T04:57:42.213Z,81.63
2018-07-30T04:58:42.312Z,82.12
2018-07-30T04:59:42.304Z,82.16
2018-07-30T05:00:42.338Z,82.16
2018-07-30T05:01:42.401Z,82.16
2018-07-30T05:02:42.439Z,82.02
2018-07-30T05:03:42.733Z,82.26
2018-07-30T05:04:42.564Z,83.12
2018-07-30T05:05:42.569Z,82.45
2018-07-30T05:06:42.633Z,82.98
2018-07-30T05:07:42.654Z,82.89
2018-07-30T05:08:42.904Z,82.60
2018-07-30T05:09:42.755Z,82.98
2018-07-30T05:10:42.783Z,83.08
2018-07-30T05:11:42.856Z,82.98
2018-07-30T05:12:42.916Z,82.98
2018-07-30T05:13:42.931Z,83.47
2018-07-30T05:14:43.199Z,84.33
2018-07-30T05:15:43.028Z,84.23
2018-07-30T05:16:43.085Z,84.05
2018-07-30T05:17:43.110Z,84.14
2018-07-30T05:18:43.161Z,83.85
2018-07-30T05:19:43.232Z,83.28
2018-07-30T05:20:43.495Z,83.75
2018-07-30T05:21:43.293Z,83.37
2018-07-30T05:22:43.378Z,83.47
2018-07-30T05:23:43.388Z,83.47
2018-07-30T05:24:43.441Z,82.89
2018-07-30T05:25:43.507Z,83.08
2018-07-30T05:26:43.668Z,82.41
2018-07-30T05:27:43.583Z,82.64
2018-07-30T05:28:43.627Z,82.50
2018-07-30T05:29:43.674Z,82.31
2018-07-30T05:30:43.680Z,82.98
2018-07-30T05:31:43.827Z,82.41
2018-07-30T05:32:43.988Z,82.41
2018-07-30T05:33:43.847Z,82.35
2018-07-30T05:34:43.892Z,82.54
2018-07-30T05:35:43.943Z,82.26
2018-07-30T05:36:44.012Z,82.06
2018-07-30T05:37:44.262Z,82.26
2018-07-30T05:38:44.074Z,82.54
2018-07-30T05:39:44.103Z,82.45
2018-07-30T05:40:44.144Z,82.06
2018-07-30T05:41:44.228Z,82.70
2018-07-30T05:42:44.280Z,82.83
2018-07-30T05:43:44.509Z,82.79
2018-07-30T05:44:44.349Z,83.75
2018-07-30T05:45:44.365Z,84.05
2018-07-30T05:46:44.440Z,84.72
2018-07-30T05:47:44.492Z,84.91
2018-07-30T05:48:44.521Z,85.20
2018-07-30T05:49:44.746Z,86.12
2018-07-30T05:50:44.600Z,86.12
2018-07-30T05:51:44.664Z,86.79
2018-07-30T05:52:44.717Z,86.89
2018-07-30T05:53:44.742Z,87.27
2018-07-30T05:54:44.781Z,87.18
2018-07-30T05:55:45.111Z,87.66
2018-07-30T05:56:44.893Z,87.76
2018-07-30T05:57:44.921Z,87.33
2018-07-30T05:58:44.970Z,88.24
2018-07-30T05:59:45.068Z,88.48
2018-07-30T06:00:45.082Z,88.87
2018-07-30T06:01:45.305Z,89.15
2018-07-30T06:02:45.162Z,89.64
2018-07-30T06:03:45.236Z,89.54
2018-07-30T06:04:45.255Z,88.48
2018-07-30T06:05:45.300Z,89.15
2018-07-30T06:06:45.328Z,89.25
2018-07-30T06:07:45.596Z,89.54
2018-07-30T06:08:45.426Z,89.25
2018-07-30T06:09:45.576Z,89.54
2018-07-30T06:10:45.506Z,89.73
2018-07-30T06:11:45.561Z,89.44
2018-07-30T06:12:45.628Z,90.12
2018-07-30T06:13:45.807Z,90.21
2018-07-30T06:14:45.719Z,90.07
2018-07-30T06:15:45.755Z,89.59
2018-07-30T06:16:45.779Z,89.83
2018-07-30T06:17:45.828Z,89.88
2018-07-30T06:18:45.890Z,90.07
2018-07-30T06:19:45.938Z,90.45
2018-07-30T06:20:46.183Z,90.26
2018-07-30T06:21:46.006Z,90.17
2018-07-30T06:22:46.055Z,90.17
2018-07-30T06:23:46.109Z,89.88
2018-07-30T06:24:46.145Z,90.55
2018-07-30T06:25:46.344Z,90.75
2018-07-30T06:26:46.227Z,90.45
2018-07-30T06:27:46.277Z,90.75
2018-07-30T06:28:46.338Z,90.26
2018-07-30T06:29:46.381Z,90.36
2018-07-30T06:30:46.426Z,90.36
2018-07-30T06:31:46.721Z,89.88
2018-07-30T06:32:46.504Z,91.42
2018-07-30T06:33:46.536Z,91.32
2018-07-30T06:34:46.622Z,91.03
2018-07-30T06:35:46.653Z,90.65
2018-07-30T06:36:46.855Z,90.94
2018-07-30T06:37:46.744Z,90.94
2018-07-30T06:38:46.818Z,91.13
2018-07-30T06:39:46.820Z,90.94
2018-07-30T06:40:46.879Z,90.84
2018-07-30T06:41:46.904Z,90.65
2018-07-30T06:42:46.944Z,91.13
2018-07-30T06:43:47.006Z,90.84
2018-07-30T06:44:47.055Z,90.55
2018-07-30T06:45:47.120Z,90.84
2018-07-30T06:46:47.352Z,90.75
2018-07-30T06:47:47.414Z,90.84
2018-07-30T06:48:47.238Z,90.75
2018-07-30T06:49:47.262Z,90.84
2018-07-30T06:50:47.323Z,90.94
2018-07-30T06:51:47.364Z,90.45
2018-07-30T06:52:49.081Z,90.75
2018-07-30T06:53:47.499Z,91.13
2018-07-30T06:54:47.504Z,91.42
2018-07-30T06:55:47.537Z,91.42
2018-07-30T06:56:47.586Z,90.94
2018-07-30T06:57:47.661Z,91.42
2018-07-30T06:58:47.878Z,91.52
2018-07-30T06:59:47.740Z,91.61
2018-07-30T07:00:47.783Z,91.99
2018-07-30T07:01:47.822Z,91.61
2018-07-30T07:03:48.090Z,92.19
2018-07-30T07:04:47.936Z,92.29
2018-07-30T07:05:48.043Z,91.90
2018-07-30T07:06:48.053Z,91.90
2018-07-30T07:07:48.075Z,92.19
2018-07-30T07:08:48.142Z,92.19
2018-07-30T07:09:48.386Z,92.09
2018-07-30T07:10:48.271Z,92.38
2018-07-30T07:11:48.246Z,92.19
2018-07-30T07:12:48.318Z,92.19
2018-07-30T07:13:48.349Z,91.61
2018-07-30T07:14:48.533Z,91.71
2018-07-30T07:15:48.427Z,91.61
2018-07-30T07:16:48.553Z,91.80
2018-07-30T07:17:48.555Z,91.61
2018-07-30T07:18:48.580Z,91.71
2018-07-30T07:19:48.611Z,92.29
2018-07-30T07:20:48.950Z,92.19
2018-07-30T07:21:48.760Z,91.90
2018-07-30T07:22:48.757Z,91.90
2018-07-30T07:23:48.845Z,92.19
2018-07-30T07:24:48.834Z,92.29
2018-07-30T07:25:49.089Z,92.76
2018-07-30T07:26:48.898Z,92.57
2018-07-30T07:27:48.971Z,92.67
2018-07-30T07:28:49.015Z,92.09
2018-07-30T07:29:49.046Z,92.19
2018-07-30T07:30:49.128Z,92.38
2018-07-30T07:31:49.370Z,92.19
2018-07-30T07:32:49.193Z,92.19
2018-07-30T07:33:49.248Z,91.42
2018-07-30T07:34:49.349Z,91.52
2018-07-30T07:35:49.341Z,91.90
2018-07-30T07:36:49.380Z,91.61
2018-07-30T07:37:49.426Z,91.61
2018-07-30T07:38:49.521Z,92.29
2018-07-30T07:39:49.524Z,92.76
2018-07-30T07:40:49.543Z,93.05
2018-07-30T07:41:49.730Z,92.43
2018-07-30T07:42:49.631Z,92.76
2018-07-30T07:43:49.676Z,92.52
2018-07-30T07:44:49.787Z,92.38
2018-07-30T07:45:49.772Z,92.76
2018-07-30T07:46:49.837Z,92.47
2018-07-30T07:47:50.146Z,93.05
2018-07-30T07:48:49.902Z,92.47
2018-07-30T07:49:50.008Z,91.42
2018-07-30T07:50:50.244Z,92.09
2018-07-30T07:51:50.053Z,92.52
2018-07-30T07:52:50.247Z,92.57
2018-07-30T07:53:50.171Z,92.72
2018-07-30T07:54:50.200Z,93.39
2018-07-30T07:55:50.225Z,93.63
2018-07-30T07:56:50.265Z,93.19
2018-07-30T07:57:50.351Z,93.96
2018-07-30T07:58:50.374Z,94.06
2018-07-30T07:59:50.444Z,93.39
2018-07-30T08:00:50.442Z,93.39
2018-07-30T08:01:50.508Z,93.39
2018-07-30T08:02:50.739Z,93.49
2018-07-30T08:03:50.604Z,93.49
2018-07-30T08:04:50.606Z,94.35
2018-07-30T08:05:50.686Z,94.06
2018-07-30T08:06:50.783Z,94.26
2018-07-30T08:07:50.945Z,94.45
2018-07-30T08:08:50.817Z,94.16
2018-07-30T08:09:51.053Z,94.45
2018-07-30T08:10:50.923Z,94.16
2018-07-30T08:11:50.913Z,94.06
2018-07-30T08:12:50.970Z,94.16
2018-07-30T08:13:51.077Z,94.35
2018-07-30T08:14:51.041Z,94.73
2018-07-30T08:15:51.134Z,94.35
2018-07-30T08:16:51.153Z,94.26
2018-07-30T08:17:51.397Z,94.26
2018-07-30T08:18:51.242Z,94.54
2018-07-30T08:19:51.296Z,94.54
2018-07-30T08:20:51.360Z,94.45
2018-07-30T08:21:51.384Z,94.06
2018-07-30T08:22:51.488Z,93.96
2018-07-30T08:23:51.464Z,94.26
2018-07-30T08:25:51.596Z,94.54
2018-07-30T08:26:51.598Z,94.73
2018-07-30T08:27:51.838Z,94.83
2018-07-30T08:28:51.855Z,95.40
2018-07-30T08:29:51.731Z,95.70
2018-07-30T08:30:51.823Z,95.21
2018-07-30T08:31:51.814Z,95.21
2018-07-30T08:32:51.884Z,95.40
2018-07-30T08:33:51.935Z,95.31
2018-07-30T08:34:51.954Z,95.21
2018-07-30T08:35:52.058Z,95.21
2018-07-30T08:36:52.044Z,95.60
2018-07-30T08:37:52.159Z,95.60
2018-07-30T08:38:52.333Z,96.17
2018-07-30T08:39:52.186Z,96.17
2018-07-30T08:40:52.208Z,95.50
2018-07-30T08:41:52.252Z,95.31
2018-07-30T08:42:52.291Z,95.21
2018-07-30T08:43:52.579Z,95.98
2018-07-30T08:44:52.391Z,96.66
2018-07-30T08:45:52.465Z,96.66
2018-07-30T08:46:52.548Z,96.47
2018-07-30T08:47:52.548Z,96.37
2018-07-30T08:48:52.741Z,96.32
2018-07-30T08:49:52.817Z,96.27
2018-07-30T08:50:52.656Z,96.94
2018-07-30T08:51:52.754Z,97.04
2018-07-30T08:52:52.753Z,96.85
2018-07-30T08:53:52.803Z,96.85
2018-07-30T08:54:53.032Z,96.85
2018-07-30T08:55:52.904Z,96.66
2018-07-30T08:56:52.957Z,97.33
2018-07-30T08:57:52.988Z,96.75
2018-07-30T08:58:53.062Z,98.10
2018-07-30T08:59:53.056Z,97.81
2018-07-30T09:00:53.132Z,97.71
2018-07-30T09:01:53.371Z,97.81
2018-07-30T09:02:53.221Z,97.62
2018-07-30T09:03:53.240Z,97.14
2018-07-30T09:04:53.294Z,97.33
2018-07-30T09:05:53.342Z,97.28
2018-07-30T09:06:53.584Z,97.66
2018-07-30T09:07:53.412Z,97.76
2018-07-30T09:08:53.473Z,97.33
2018-07-30T09:09:53.525Z,98.05
2018-07-30T09:10:53.557Z,98.39
2018-07-30T09:11:53.584Z,98.53
2018-07-30T09:12:54.039Z,98.63
2018-07-30T09:13:53.713Z,98.34
2018-07-30T09:14:53.755Z,98.91
2018-07-30T09:15:53.828Z,98.53
2018-07-30T09:16:53.871Z,98.91
2018-07-30T09:17:53.848Z,98.91
2018-07-30T09:18:53.904Z,98.82
2018-07-30T09:19:53.974Z,99.20
2018-07-30T09:20:54.015Z,98.91
2018-07-30T09:21:54.040Z,99.20
2018-07-30T09:22:54.126Z,99.87
2018-07-30T09:23:54.336Z,99.99
2018-07-30T09:24:54.167Z,99.99
2018-07-30T09:25:54.223Z,99.99
2018-07-30T09:26:54.292Z,99.99
2018-07-30T09:27:54.280Z,99.99
2018-07-30T09:28:54.347Z,99.99
2018-07-30T09:29:54.360Z,99.99
2018-07-30T09:30:54.446Z,99.99
2018-07-30T09:31:54.474Z,99.99
2018-07-30T09:32:54.625Z,99.99
2018-07-30T09:33:54.808Z,99.99
2018-07-30T09:34:54.617Z,99.99
2018-07-30T09:35:54.643Z,99.99
2018-07-30T09:36:54.707Z,99.99
2018-07-30T09:37:54.736Z,99.99
2018-07-30T09:38:54.988Z,99.99
2018-07-30T09:39:54.824Z,99.99
2018-07-30T09:40:54.880Z,99.99
2018-07-30T09:41:54.883Z,99.99
2018-07-30T09:42:54.958Z,99.99
2018-07-30T09:43:54.983Z,99.99
2018-07-30T09:44:55.243Z,99.99
2018-07-30T09:45:55.075Z,99.99
2018-07-30T09:46:55.128Z,99.99
2018-07-30T09:47:55.169Z,99.99
2018-07-30T09:48:55.237Z,99.99
2018-07-30T09:49:55.574Z,99.99
2018-07-30T09:50:55.312Z,99.99
2018-07-30T09:51:55.351Z,99.99
2018-07-30T09:52:55.396Z,99.99
2018-07-30T09:53:55.439Z,99.99
2018-07-30T09:54:55.477Z,99.99
2018-07-30T09:55:55.681Z,99.99
2018-07-30T09:56:55.578Z,99.99
2018-07-30T09:57:55.624Z,99.99
2018-07-30T09:58:55.638Z,99.99
2018-07-30T09:59:55.693Z,99.99
2018-07-30T10:00:55.764Z,99.99
2018-07-30T10:01:55.779Z,99.99
2018-07-30T10:02:55.832Z,99.99
2018-07-30T10:03:55.879Z,99.99
2018-07-30T10:04:55.930Z,99.99
2018-07-30T10:05:55.958Z,99.99
2018-07-30T10:06:56.003Z,99.99
2018-07-30T10:07:56.064Z,99.99
2018-07-30T10:08:56.085Z,99.99
2018-07-30T10:09:56.151Z,99.99
2018-07-30T10:10:56.170Z,99.99
2018-07-30T10:11:56.202Z,99.99
2018-07-30T10:12:56.246Z,99.99
2018-07-30T10:13:56.297Z,99.99
2018-07-30T10:14:56.361Z,99.99
2018-07-30T10:15:56.371Z,99.99
2018-07-30T10:16:56.455Z,99.99
2018-07-30T10:17:56.731Z,99.99
2018-07-30T10:18:56.489Z,99.99
2018-07-30T10:19:56.549Z,99.99
2018-07-30T10:20:56.613Z,99.99
2018-07-30T10:21:56.662Z,99.99
2018-07-30T10:22:56.698Z,99.99
2018-07-30T10:23:56.749Z,99.99
2018-07-30T10:24:56.819Z,99.99
2018-07-30T10:25:56.828Z,99.99
2018-07-30T10:26:56.841Z,99.99
2018-07-30T10:27:56.891Z,99.99
2018-07-30T10:28:56.951Z,99.99
2018-07-30T10:29:56.986Z,99.99
2018-07-30T10:30:57.048Z,99.99
2018-07-30T10:31:57.102Z,99.99
2018-07-30T10:32:57.098Z,99.99
2018-07-30T10:33:57.217Z,99.99
2018-07-30T10:34:57.255Z,99.99
2018-07-30T10:35:57.251Z,99.99
2018-07-30T10:36:57.317Z,99.99
2018-07-30T10:37:57.373Z,99.99
2018-07-30T10:38:57.554Z,99.99
2018-07-30T10:39:57.489Z,99.99
2018-07-30T10:40:57.473Z,99.99
2018-07-30T10:41:57.594Z,99.99
2018-07-30T10:42:57.575Z,99.99
2018-07-30T10:43:57.621Z,99.99
2018-07-30T10:44:57.834Z,99.99
2018-07-30T10:45:57.761Z,99.99
2018-07-30T10:46:57.801Z,99.99
2018-07-30T10:47:57.800Z,99.99
2018-07-30T10:48:57.826Z,99.99
2018-07-30T10:49:57.911Z,99.99
2018-07-30T10:50:58.129Z,99.99
2018-07-30T10:51:57.979Z,99.99
2018-07-30T10:52:58.022Z,99.99
2018-07-30T10:53:58.070Z,99.99
2018-07-30T10:54:58.126Z,99.99
2018-07-30T10:55:58.141Z,99.99
2018-07-30T10:56:58.354Z,99.99
2018-07-30T10:57:58.232Z,99.99
2018-07-30T10:58:58.349Z,99.99
2018-07-30T10:59:58.355Z,99.45
2018-07-30T11:00:58.401Z,99.93
2018-07-30T11:01:58.432Z,99.69
2018-07-30T11:02:58.497Z,99.21
2018-07-30T11:03:58.541Z,98.83
2018-07-30T11:04:58.592Z,98.73
2018-07-30T11:05:58.624Z,99.02
2018-07-30T11:06:58.674Z,98.30
2018-07-30T11:07:58.715Z,96.66
2018-07-30T11:08:58.975Z,96.31
2018-07-30T11:09:58.794Z,95.83
2018-07-30T11:10:58.875Z,94.87
2018-07-30T11:11:58.885Z,95.59
2018-07-30T11:12:58.983Z,94.62
2018-07-30T11:13:59.005Z,94.24
2018-07-30T11:14:59.063Z,94.04
2018-07-30T11:15:59.123Z,93.56
2018-07-30T11:16:59.154Z,93.17
2018-07-30T11:17:59.219Z,93.12
2018-07-30T11:18:59.235Z,92.54
2018-07-30T11:19:59.295Z,91.48
2018-07-30T11:20:59.363Z,91.52
2018-07-30T11:21:59.400Z,91.14
2018-07-30T11:22:59.437Z,90.41
2018-07-30T11:24:01.001Z,90.46
2018-07-30T11:24:59.524Z,90.17
2018-07-30T11:25:59.589Z,90.84
2018-07-30T11:26:59.646Z,91.04
2018-07-30T11:27:59.712Z,90.26
2018-07-30T11:28:59.762Z,90.31
2018-07-30T11:29:59.786Z,89.00
2018-07-30T11:30:59.840Z,88.32
2018-07-30T11:31:59.888Z,87.98
2018-07-30T11:32:59.937Z,86.57
2018-07-30T11:33:59.979Z,85.44
2018-07-30T11:35:00.038Z,84.52
2018-07-30T11:36:00.096Z,83.84
2018-07-30T11:37:00.137Z,83.97
2018-07-30T11:38:00.193Z,83.10
2018-07-30T11:39:00.238Z,82.87
2018-07-30T11:40:00.326Z,83.54
2018-07-30T11:41:00.379Z,83.50
2018-07-30T11:42:00.388Z,83.99
2018-07-30T11:43:00.494Z,84.92
2018-07-30T11:44:00.486Z,85.90
2018-07-30T11:45:00.539Z,87.99
2018-07-30T11:46:00.587Z,88.77
2018-07-30T11:47:00.656Z,90.61
2018-07-30T11:48:00.694Z,91.43
2018-07-30T11:49:00.966Z,93.03
2018-07-30T11:50:00.788Z,93.32
2018-07-30T11:51:00.836Z,93.51
2018-07-30T11:52:00.891Z,94.29
2018-07-30T11:53:00.939Z,94.57
2018-07-30T11:54:01.310Z,94.82
2018-07-30T11:55:01.256Z,95.01
2018-07-30T11:56:01.101Z,94.92
2018-07-30T11:57:01.146Z,95.50
2018-07-30T11:58:01.184Z,96.03
2018-07-30T11:59:01.244Z,96.31
2018-07-30T12:00:01.296Z,96.70
2018-07-30T12:01:01.346Z,97.57
2018-07-30T12:02:01.369Z,97.77
2018-07-30T12:03:01.423Z,97.86
2018-07-30T12:04:01.473Z,97.77
2018-07-30T12:05:01.549Z,97.47
2018-07-30T12:06:01.793Z,97.57
2018-07-30T12:07:01.611Z,97.09
2018-07-30T12:08:01.683Z,96.84
2018-07-30T12:09:01.729Z,96.46
2018-07-30T12:10:01.956Z,96.12
2018-07-30T12:11:01.852Z,95.15
2018-07-30T12:12:01.874Z,94.18
2018-07-30T12:13:01.912Z,93.17
2018-07-30T12:14:01.967Z,91.66
2018-07-30T12:15:02.039Z,89.82
2018-07-30T12:16:02.050Z,87.63
2018-07-30T12:17:02.311Z,85.97
2018-07-30T12:18:02.199Z,83.49
2018-07-30T12:19:02.207Z,83.04
2018-07-30T12:20:02.311Z,81.93
2018-07-30T12:21:02.317Z,81.51
2018-07-30T12:23:02.473Z,83.15
2018-07-30T12:24:02.446Z,82.52
2018-07-30T12:25:02.527Z,81.88
2018-07-30T12:26:02.564Z,80.79
2018-07-30T12:27:02.619Z,80.44
2018-07-30T12:28:02.662Z,78.92
2018-07-30T12:29:02.739Z,78.19
2018-07-30T12:30:02.937Z,76.76
2018-07-30T12:31:02.809Z,75.53
2018-07-30T12:32:02.864Z,73.66
2018-07-30T12:33:02.916Z,72.91
2018-07-30T12:34:03.022Z,70.83
2018-07-30T12:35:03.050Z,71.90
2018-07-30T12:36:03.281Z,71.15
2018-07-30T12:37:03.186Z,71.25
2018-07-30T12:38:03.213Z,71.51
2018-07-30T12:39:03.459Z,71.61
2018-07-30T12:40:03.303Z,71.51
2018-07-30T12:41:03.392Z,71.80
2018-07-30T12:42:03.406Z,71.18
2018-07-30T12:43:03.528Z,72.31
2018-07-30T12:44:03.540Z,73.28
2018-07-30T12:45:03.613Z,75.84
2018-07-30T12:46:03.626Z,77.25
2018-07-30T12:47:03.681Z,78.03
2018-07-30T12:48:03.736Z,78.07
2018-07-30T12:49:03.808Z,76.78
2018-07-30T12:50:03.838Z,74.72
2018-07-30T12:51:03.947Z,73.52
2018-07-30T12:52:03.978Z,72.09
2018-07-30T12:53:04.065Z,71.39
2018-07-30T12:54:04.071Z,70.21
2018-07-30T12:55:04.323Z,69.95
2018-07-30T12:56:05.902Z,68.68
2018-07-30T12:57:04.239Z,68.59